sensor_id;sensor_type;location;lat;lon;timestamp;temperature;humidity
13389;DHT22;6764;53.250;10.410;2022-11-15T00:00:49;7.70;99.90
13389;DHT22;6764;53.250;10.410;2022-11-15T00:03:16;7.70;99.90
13389;DHT22;6764;53.250;10.410;2022-11-15T00:05:42;7.80;99.90
13389;DHT22;6764;53.250;10.410;2022-11-15T00:08:08;7.70;99.90
13389;DHT22;6764;53.250;10.410;2022-11-15T00:10:33;7.70;99.90
13389;DHT22;6764;53.250;10.410;2022-11-15T00:12:59;7.70;99.90
13389;DHT22;6764;53.250;10.410;2022-11-15T00:15:25;7.80;99.90
13389;DHT22;6764;53.250;10.410;2022-11-15T00:17:50;7.70;99.90
13389;DHT22;6764;53.250;10.410;2022-11-15T00:20:19;7.70;99.90
13389;DHT22;6764;53.250;10.410;2022-11-15T00:22:45;7.70;99.90
13389;DHT22;6764;53.250;10.410;2022-11-15T00:25:10;7.70;99.90
13389;DHT22;6764;53.250;10.410;2022-11-15T00:27:36;7.60;99.90
13389;DHT22;6764;53.250;10.410;2022-11-15T00:30:01;7.60;99.90
13389;DHT22;6764;53.250;10.410;2022-11-15T00:32:31;7.60;99.90
13389;DHT22;6764;53.250;10.410;2022-11-15T00:34:57;7.60;99.90
13389;DHT22;6764;53.250;10.410;2022-11-15T00:37:23;7.60;99.90
13389;DHT22;6764;53.250;10.410;2022-11-15T00:39:48;7.70;99.90
13389;DHT22;6764;53.250;10.410;2022-11-15T00:42:14;7.70;99.90
13389;DHT22;6764;53.250;10.410;2022-11-15T00:44:40;7.60;99.90
13389;DHT22;6764;53.250;10.410;2022-11-15T00:47:05;7.60;99.90
13389;DHT22;6764;53.250;10.410;2022-11-15T00:49:31;7.60;99.90
13389;DHT22;6764;53.250;10.410;2022-11-15T00:51:56;7.60;99.90
13389;DHT22;6764;53.250;10.410;2022-11-15T00:54:22;7.60;99.90
13389;DHT22;6764;53.250;10.410;2022-11-15T00:56:48;7.50;99.90
13389;DHT22;6764;53.250;10.410;2022-11-15T00:59:13;7.50;99.90
13389;DHT22;6764;53.250;10.410;2022-11-15T01:01:39;7.50;99.90
13389;DHT22;6764;53.250;10.410;2022-11-15T01:04:05;7.50;99.90
13389;DHT22;6764;53.250;10.410;2022-11-15T01:06:31;7.40;99.90
13389;DHT22;6764;53.250;10.410;2022-11-15T01:08:57;7.40;99.90
13389;DHT22;6764;53.250;10.410;2022-11-15T01:11:22;7.40;99.90
13389;DHT22;6764;53.250;10.410;2022-11-15T01:13:48;7.40;99.90
13389;DHT22;6764;53.250;10.410;2022-11-15T01:16:16;7.40;99.90
13389;DHT22;6764;53.250;10.410;2022-11-15T01:18:43;7.30;99.90
13389;DHT22;6764;53.250;10.410;2022-11-15T01:21:11;7.30;99.90
13389;DHT22;6764;53.250;10.410;2022-11-15T01:23:38;7.40;99.90
13389;DHT22;6764;53.250;10.410;2022-11-15T01:26:06;7.30;99.90
13389;DHT22;6764;53.250;10.410;2022-11-15T01:28:34;7.20;99.90
13389;DHT22;6764;53.250;10.410;2022-11-15T01:31:00;7.20;99.90
13389;DHT22;6764;53.250;10.410;2022-11-15T01:33:27;7.20;99.90
13389;DHT22;6764;53.250;10.410;2022-11-15T01:35:53;7.20;99.90
13389;DHT22;6764;53.250;10.410;2022-11-15T01:38:19;7.20;99.90
13389;DHT22;6764;53.250;10.410;2022-11-15T01:40:45;7.20;99.90
13389;DHT22;6764;53.250;10.410;2022-11-15T01:43:30;7.20;99.90
13389;DHT22;6764;53.250;10.410;2022-11-15T01:46:43;7.20;99.90
13389;DHT22;6764;53.250;10.410;2022-11-15T01:48:52;7.20;99.90
13389;DHT22;6764;53.250;10.410;2022-11-15T01:51:21;7.10;99.90
13389;DHT22;6764;53.250;10.410;2022-11-15T01:53:52;7.10;99.90
13389;DHT22;6764;53.250;10.410;2022-11-15T01:56:23;7.10;99.90
13389;DHT22;6764;53.250;10.410;2022-11-15T01:58:51;7.10;99.90
13389;DHT22;6764;53.250;10.410;2022-11-15T02:01:17;7.10;99.90
13389;DHT22;6764;53.250;10.410;2022-11-15T02:03:51;7.10;99.90
13389;DHT22;6764;53.250;10.410;2022-11-15T02:06:18;7.10;99.90
13389;DHT22;6764;53.250;10.410;2022-11-15T02:08:44;7.10;99.90
13389;DHT22;6764;53.250;10.410;2022-11-15T02:11:13;7.10;99.90
13389;DHT22;6764;53.250;10.410;2022-11-15T02:13:39;7.10;99.90
13389;DHT22;6764;53.250;10.410;2022-11-15T02:18:41;7.10;99.90
13389;DHT22;6764;53.250;10.410;2022-11-15T02:21:30;7.10;99.90
13389;DHT22;6764;53.250;10.410;2022-11-15T02:32:07;7.10;99.90
13389;DHT22;6764;53.250;10.410;2022-11-15T02:34:54;7.10;99.90
13389;DHT22;6764;53.250;10.410;2022-11-15T02:37:37;7.00;99.90
13389;DHT22;6764;53.250;10.410;2022-11-15T02:43:00;7.00;99.90
13389;DHT22;6764;53.250;10.410;2022-11-15T02:45:49;7.00;99.90
13389;DHT22;6764;53.250;10.410;2022-11-15T02:48:16;6.90;99.90
13389;DHT22;6764;53.250;10.410;2022-11-15T02:50:42;6.90;99.90
13389;DHT22;6764;53.250;10.410;2022-11-15T02:53:09;6.90;99.90
13389;DHT22;6764;53.250;10.410;2022-11-15T02:55:37;6.90;99.90
13389;DHT22;6764;53.250;10.410;2022-11-15T02:58:14;6.80;99.90
13389;DHT22;6764;53.250;10.410;2022-11-15T03:03:34;6.70;99.90
13389;DHT22;6764;53.250;10.410;2022-11-15T03:09:05;6.80;99.90
13389;DHT22;6764;53.250;10.410;2022-11-15T03:11:37;6.80;99.90
13389;DHT22;6764;53.250;10.410;2022-11-15T03:16:44;6.80;99.90
13389;DHT22;6764;53.250;10.410;2022-11-15T03:19:32;6.80;99.90
13389;DHT22;6764;53.250;10.410;2022-11-15T03:22:01;6.90;99.90
13389;DHT22;6764;53.250;10.410;2022-11-15T03:24:29;6.90;99.90
13389;DHT22;6764;53.250;10.410;2022-11-15T03:26:59;6.90;99.90
13389;DHT22;6764;53.250;10.410;2022-11-15T03:29:39;7.00;99.90
13389;DHT22;6764;53.250;10.410;2022-11-15T03:32:12;7.00;99.90
13389;DHT22;6764;53.250;10.410;2022-11-15T03:37:12;7.00;99.90
13389;DHT22;6764;53.250;10.410;2022-11-15T03:39:38;7.10;99.90
13389;DHT22;6764;53.250;10.410;2022-11-15T03:42:24;7.10;99.90
13389;DHT22;6764;53.250;10.410;2022-11-15T03:44:54;7.10;99.90
13389;DHT22;6764;53.250;10.410;2022-11-15T03:47:35;7.10;99.90
13389;DHT22;6764;53.250;10.410;2022-11-15T03:50:15;7.20;99.90
13389;DHT22;6764;53.250;10.410;2022-11-15T03:52:41;7.10;99.90
13389;DHT22;6764;53.250;10.410;2022-11-15T03:55:10;7.20;99.90
13389;DHT22;6764;53.250;10.410;2022-11-15T03:57:36;7.30;99.90
13389;DHT22;6764;53.250;10.410;2022-11-15T04:00:03;7.30;99.90
13389;DHT22;6764;53.250;10.410;2022-11-15T04:02:29;7.30;99.90
13389;DHT22;6764;53.250;10.410;2022-11-15T04:04:55;7.30;99.90
13389;DHT22;6764;53.250;10.410;2022-11-15T04:07:21;7.30;99.90
13389;DHT22;6764;53.250;10.410;2022-11-15T04:09:47;7.30;99.90
13389;DHT22;6764;53.250;10.410;2022-11-15T04:12:38;7.40;99.90
13389;DHT22;6764;53.250;10.410;2022-11-15T04:15:10;7.40;99.90
13389;DHT22;6764;53.250;10.410;2022-11-15T04:17:38;7.40;99.90
13389;DHT22;6764;53.250;10.410;2022-11-15T04:20:07;7.40;99.90
13389;DHT22;6764;53.250;10.410;2022-11-15T04:22:58;7.50;99.90
13389;DHT22;6764;53.250;10.410;2022-11-15T04:25:43;7.50;99.90
13389;DHT22;6764;53.250;10.410;2022-11-15T04:28:10;7.50;99.90
13389;DHT22;6764;53.250;10.410;2022-11-15T04:30:36;7.50;99.90
13389;DHT22;6764;53.250;10.410;2022-11-15T04:33:01;7.50;99.90
13389;DHT22;6764;53.250;10.410;2022-11-15T04:35:27;7.60;99.90
13389;DHT22;6764;53.250;10.410;2022-11-15T04:37:54;7.60;99.90
13389;DHT22;6764;53.250;10.410;2022-11-15T04:40:20;7.60;99.90
13389;DHT22;6764;53.250;10.410;2022-11-15T04:42:46;7.60;99.90
13389;DHT22;6764;53.250;10.410;2022-11-15T04:45:11;7.60;99.90
13389;DHT22;6764;53.250;10.410;2022-11-15T04:47:37;7.60;99.90
13389;DHT22;6764;53.250;10.410;2022-11-15T04:50:03;7.60;99.90
13389;DHT22;6764;53.250;10.410;2022-11-15T04:52:29;7.60;99.90
13389;DHT22;6764;53.250;10.410;2022-11-15T04:54:54;7.60;99.90
13389;DHT22;6764;53.250;10.410;2022-11-15T04:57:20;7.60;99.90
13389;DHT22;6764;53.250;10.410;2022-11-15T04:59:46;7.50;99.90
13389;DHT22;6764;53.250;10.410;2022-11-15T05:02:12;7.50;99.90
13389;DHT22;6764;53.250;10.410;2022-11-15T05:04:37;7.50;99.90
13389;DHT22;6764;53.250;10.410;2022-11-15T05:07:03;7.50;99.90
13389;DHT22;6764;53.250;10.410;2022-11-15T05:09:31;7.50;99.90
13389;DHT22;6764;53.250;10.410;2022-11-15T05:11:57;7.40;99.90
13389;DHT22;6764;53.250;10.410;2022-11-15T05:14:22;7.40;99.90
13389;DHT22;6764;53.250;10.410;2022-11-15T05:16:48;7.40;99.90
13389;DHT22;6764;53.250;10.410;2022-11-15T05:19:14;7.50;99.90
13389;DHT22;6764;53.250;10.410;2022-11-15T05:21:40;7.40;99.90
13389;DHT22;6764;53.250;10.410;2022-11-15T05:24:06;7.40;99.90
13389;DHT22;6764;53.250;10.410;2022-11-15T05:26:31;7.40;99.90
13389;DHT22;6764;53.250;10.410;2022-11-15T05:28:58;7.30;99.90
13389;DHT22;6764;53.250;10.410;2022-11-15T05:31:25;7.40;99.90
13389;DHT22;6764;53.250;10.410;2022-11-15T05:33:51;7.40;99.90
13389;DHT22;6764;53.250;10.410;2022-11-15T05:36:36;7.40;99.90
13389;DHT22;6764;53.250;10.410;2022-11-15T05:39:05;7.50;99.90
13389;DHT22;6764;53.250;10.410;2022-11-15T05:41:44;7.50;99.90
13389;DHT22;6764;53.250;10.410;2022-11-15T05:44:13;7.50;99.90
13389;DHT22;6764;53.250;10.410;2022-11-15T05:46:40;7.50;99.90
13389;DHT22;6764;53.250;10.410;2022-11-15T05:49:08;7.60;99.90
13389;DHT22;6764;53.250;10.410;2022-11-15T05:51:35;7.60;99.90
13389;DHT22;6764;53.250;10.410;2022-11-15T05:54:01;7.70;99.90
13389;DHT22;6764;53.250;10.410;2022-11-15T05:56:27;7.70;99.90
13389;DHT22;6764;53.250;10.410;2022-11-15T05:58:55;7.70;99.90
13389;DHT22;6764;53.250;10.410;2022-11-15T06:01:22;7.70;99.90
13389;DHT22;6764;53.250;10.410;2022-11-15T06:03:48;7.80;99.90
13389;DHT22;6764;53.250;10.410;2022-11-15T06:06:14;7.80;99.90
13389;DHT22;6764;53.250;10.410;2022-11-15T06:08:39;7.80;99.90
13389;DHT22;6764;53.250;10.410;2022-11-15T06:11:06;7.80;99.90
13389;DHT22;6764;53.250;10.410;2022-11-15T06:13:33;7.80;99.90
13389;DHT22;6764;53.250;10.410;2022-11-15T06:15:59;7.90;99.90
13389;DHT22;6764;53.250;10.410;2022-11-15T06:18:25;7.80;99.90
13389;DHT22;6764;53.250;10.410;2022-11-15T06:20:51;7.90;99.90
13389;DHT22;6764;53.250;10.410;2022-11-15T06:23:16;7.90;99.90
13389;DHT22;6764;53.250;10.410;2022-11-15T06:25:42;7.90;99.90
13389;DHT22;6764;53.250;10.410;2022-11-15T06:28:08;8.00;99.90
13389;DHT22;6764;53.250;10.410;2022-11-15T06:30:33;7.90;99.90
13389;DHT22;6764;53.250;10.410;2022-11-15T06:33:00;8.00;99.90
13389;DHT22;6764;53.250;10.410;2022-11-15T06:35:26;8.00;99.90
13389;DHT22;6764;53.250;10.410;2022-11-15T06:37:52;8.00;99.90
13389;DHT22;6764;53.250;10.410;2022-11-15T06:40:17;8.00;99.90
13389;DHT22;6764;53.250;10.410;2022-11-15T06:42:43;8.10;99.90
13389;DHT22;6764;53.250;10.410;2022-11-15T06:45:09;8.20;99.90
13389;DHT22;6764;53.250;10.410;2022-11-15T06:47:34;8.20;99.90
13389;DHT22;6764;53.250;10.410;2022-11-15T06:50:00;8.30;99.90
13389;DHT22;6764;53.250;10.410;2022-11-15T06:52:26;8.20;99.90
13389;DHT22;6764;53.250;10.410;2022-11-15T06:54:52;8.20;99.90
13389;DHT22;6764;53.250;10.410;2022-11-15T06:57:17;8.20;99.90
13389;DHT22;6764;53.250;10.410;2022-11-15T06:59:43;8.20;99.90
13389;DHT22;6764;53.250;10.410;2022-11-15T07:02:13;8.30;99.90
13389;DHT22;6764;53.250;10.410;2022-11-15T07:04:39;8.40;99.90
13389;DHT22;6764;53.250;10.410;2022-11-15T07:07:04;8.40;99.90
13389;DHT22;6764;53.250;10.410;2022-11-15T07:09:30;8.40;99.90
13389;DHT22;6764;53.250;10.410;2022-11-15T07:11:56;8.50;99.90
13389;DHT22;6764;53.250;10.410;2022-11-15T07:14:21;8.50;99.90
13389;DHT22;6764;53.250;10.410;2022-11-15T07:16:47;8.50;99.90
13389;DHT22;6764;53.250;10.410;2022-11-15T07:19:12;8.50;99.90
13389;DHT22;6764;53.250;10.410;2022-11-15T07:21:38;8.50;99.90
13389;DHT22;6764;53.250;10.410;2022-11-15T07:24:04;8.50;99.90
13389;DHT22;6764;53.250;10.410;2022-11-15T07:26:30;8.60;99.90
13389;DHT22;6764;53.250;10.410;2022-11-15T07:28:55;8.70;99.90
13389;DHT22;6764;53.250;10.410;2022-11-15T07:31:21;8.70;99.90
13389;DHT22;6764;53.250;10.410;2022-11-15T07:33:50;8.80;99.90
13389;DHT22;6764;53.250;10.410;2022-11-15T07:36:16;8.90;99.90
13389;DHT22;6764;53.250;10.410;2022-11-15T07:38:42;8.90;99.90
13389;DHT22;6764;53.250;10.410;2022-11-15T07:41:07;9.00;99.90
13389;DHT22;6764;53.250;10.410;2022-11-15T07:43:33;9.10;99.90
13389;DHT22;6764;53.250;10.410;2022-11-15T07:46:07;9.20;99.90
13389;DHT22;6764;53.250;10.410;2022-11-15T07:48:35;9.30;99.90
13389;DHT22;6764;53.250;10.410;2022-11-15T07:51:01;9.30;99.90
13389;DHT22;6764;53.250;10.410;2022-11-15T07:53:27;9.50;99.90
13389;DHT22;6764;53.250;10.410;2022-11-15T07:55:52;9.50;99.90
13389;DHT22;6764;53.250;10.410;2022-11-15T07:58:19;9.50;99.90
13389;DHT22;6764;53.250;10.410;2022-11-15T08:00:45;9.40;99.90
13389;DHT22;6764;53.250;10.410;2022-11-15T08:03:13;9.50;99.90
13389;DHT22;6764;53.250;10.410;2022-11-15T08:05:39;9.60;99.90
13389;DHT22;6764;53.250;10.410;2022-11-15T08:08:06;9.50;99.90
13389;DHT22;6764;53.250;10.410;2022-11-15T08:10:32;9.50;99.90
13389;DHT22;6764;53.250;10.410;2022-11-15T08:13:00;9.50;99.90
13389;DHT22;6764;53.250;10.410;2022-11-15T08:15:26;9.50;99.90
13389;DHT22;6764;53.250;10.410;2022-11-15T08:18:00;9.30;99.90
13389;DHT22;6764;53.250;10.410;2022-11-15T08:20:28;9.30;99.90
13389;DHT22;6764;53.250;10.410;2022-11-15T08:22:58;9.40;99.90
13389;DHT22;6764;53.250;10.410;2022-11-15T08:25:25;9.40;99.90
13389;DHT22;6764;53.250;10.410;2022-11-15T08:28:01;9.40;99.90
13389;DHT22;6764;53.250;10.410;2022-11-15T08:30:27;9.30;99.90
13389;DHT22;6764;53.250;10.410;2022-11-15T08:32:55;9.40;99.90
13389;DHT22;6764;53.250;10.410;2022-11-15T08:35:21;9.50;99.90
13389;DHT22;6764;53.250;10.410;2022-11-15T08:37:47;9.60;99.90
13389;DHT22;6764;53.250;10.410;2022-11-15T08:40:13;9.60;99.90
13389;DHT22;6764;53.250;10.410;2022-11-15T08:42:39;9.60;99.90
13389;DHT22;6764;53.250;10.410;2022-11-15T08:45:06;9.70;99.90
13389;DHT22;6764;53.250;10.410;2022-11-15T08:47:32;9.70;99.90
13389;DHT22;6764;53.250;10.410;2022-11-15T08:49:58;9.80;99.90
13389;DHT22;6764;53.250;10.410;2022-11-15T08:52:23;9.90;99.90
13389;DHT22;6764;53.250;10.410;2022-11-15T08:54:49;9.90;99.90
13389;DHT22;6764;53.250;10.410;2022-11-15T08:57:15;9.90;99.90
13389;DHT22;6764;53.250;10.410;2022-11-15T08:59:41;10.00;99.90
13389;DHT22;6764;53.250;10.410;2022-11-15T09:02:10;10.00;99.90
13389;DHT22;6764;53.250;10.410;2022-11-15T09:04:36;9.80;99.90
13389;DHT22;6764;53.250;10.410;2022-11-15T09:07:02;9.70;99.90
13389;DHT22;6764;53.250;10.410;2022-11-15T09:09:28;9.70;99.90
13389;DHT22;6764;53.250;10.410;2022-11-15T09:11:53;9.60;99.90
13389;DHT22;6764;53.250;10.410;2022-11-15T09:14:19;9.60;99.90
13389;DHT22;6764;53.250;10.410;2022-11-15T09:16:45;9.60;99.90
13389;DHT22;6764;53.250;10.410;2022-11-15T09:19:10;9.70;99.90
13389;DHT22;6764;53.250;10.410;2022-11-15T09:21:36;9.80;99.90
13389;DHT22;6764;53.250;10.410;2022-11-15T09:24:01;10.00;99.90
13389;DHT22;6764;53.250;10.410;2022-11-15T09:26:29;10.20;99.90
13389;DHT22;6764;53.250;10.410;2022-11-15T09:28:55;10.40;99.90
13389;DHT22;6764;53.250;10.410;2022-11-15T09:31:20;10.50;99.90
13389;DHT22;6764;53.250;10.410;2022-11-15T09:33:46;10.70;99.90
13389;DHT22;6764;53.250;10.410;2022-11-15T09:36:12;10.70;99.90
13389;DHT22;6764;53.250;10.410;2022-11-15T09:38:38;10.90;99.90
13389;DHT22;6764;53.250;10.410;2022-11-15T09:43:57;11.20;99.90
13389;DHT22;6764;53.250;10.410;2022-11-15T09:47:05;11.30;99.90
13389;DHT22;6764;53.250;10.410;2022-11-15T09:49:31;11.50;99.90
13389;DHT22;6764;53.250;10.410;2022-11-15T09:51:57;11.80;99.90
13389;DHT22;6764;53.250;10.410;2022-11-15T09:56:53;12.20;99.90
13389;DHT22;6764;53.250;10.410;2022-11-15T10:04:21;12.40;99.90
13389;DHT22;6764;53.250;10.410;2022-11-15T10:09:27;12.30;99.90
13389;DHT22;6764;53.250;10.410;2022-11-15T10:11:54;12.30;99.90
13389;DHT22;6764;53.250;10.410;2022-11-15T10:14:23;12.30;99.90
13389;DHT22;6764;53.250;10.410;2022-11-15T10:25:00;12.20;99.90
13389;DHT22;6764;53.250;10.410;2022-11-15T10:27:32;12.30;99.90
13389;DHT22;6764;53.250;10.410;2022-11-15T10:29:57;12.30;99.90
13389;DHT22;6764;53.250;10.410;2022-11-15T10:32:23;12.40;99.90
13389;DHT22;6764;53.250;10.410;2022-11-15T10:34:49;12.40;99.90
13389;DHT22;6764;53.250;10.410;2022-11-15T10:37:28;12.50;99.90
13389;DHT22;6764;53.250;10.410;2022-11-15T10:40:18;12.50;99.90
13389;DHT22;6764;53.250;10.410;2022-11-15T10:42:44;12.70;99.90
13389;DHT22;6764;53.250;10.410;2022-11-15T10:45:28;12.70;99.90
13389;DHT22;6764;53.250;10.410;2022-11-15T10:47:53;12.80;99.90
13389;DHT22;6764;53.250;10.410;2022-11-15T10:50:47;13.00;99.90
13389;DHT22;6764;53.250;10.410;2022-11-15T10:53:24;12.90;99.90
13389;DHT22;6764;53.250;10.410;2022-11-15T10:55:53;13.10;99.90
13389;DHT22;6764;53.250;10.410;2022-11-15T11:00:48;13.20;99.90
13389;DHT22;6764;53.250;10.410;2022-11-15T11:03:37;13.20;99.90
13389;DHT22;6764;53.250;10.410;2022-11-15T11:06:09;13.20;99.90
13389;DHT22;6764;53.250;10.410;2022-11-15T11:08:36;13.30;99.90
13389;DHT22;6764;53.250;10.410;2022-11-15T11:11:03;13.40;99.90
13389;DHT22;6764;53.250;10.410;2022-11-15T11:13:39;13.40;99.90
13389;DHT22;6764;53.250;10.410;2022-11-15T11:21:42;13.50;99.90
13389;DHT22;6764;53.250;10.410;2022-11-15T11:30:43;13.40;99.90
13389;DHT22;6764;53.250;10.410;2022-11-15T11:41:45;13.60;99.90
13389;DHT22;6764;53.250;10.410;2022-11-15T11:44:27;13.60;99.90
13389;DHT22;6764;53.250;10.410;2022-11-15T11:47:21;13.70;99.90
13389;DHT22;6764;53.250;10.410;2022-11-15T11:49:54;13.80;99.90
13389;DHT22;6764;53.250;10.410;2022-11-15T11:52:43;13.90;99.90
13389;DHT22;6764;53.250;10.410;2022-11-15T11:55:39;13.90;99.90
13389;DHT22;6764;53.250;10.410;2022-11-15T12:00:57;13.90;99.90
13389;DHT22;6764;53.250;10.410;2022-11-15T12:03:34;13.80;99.90
13389;DHT22;6764;53.250;10.410;2022-11-15T12:06:04;13.70;99.90
13389;DHT22;6764;53.250;10.410;2022-11-15T12:08:41;13.70;99.90
13389;DHT22;6764;53.250;10.410;2022-11-15T12:14:05;13.90;99.90
13389;DHT22;6764;53.250;10.410;2022-11-15T12:16:33;13.80;99.90
13389;DHT22;6764;53.250;10.410;2022-11-15T12:19:03;13.80;99.90
13389;DHT22;6764;53.250;10.410;2022-11-15T12:21:56;13.80;99.90
13389;DHT22;6764;53.250;10.410;2022-11-15T12:24:26;13.80;99.90
13389;DHT22;6764;53.250;10.410;2022-11-15T12:27:04;13.80;99.90
13389;DHT22;6764;53.250;10.410;2022-11-15T12:29:38;13.90;99.90
13389;DHT22;6764;53.250;10.410;2022-11-15T12:34:49;13.70;99.90
13389;DHT22;6764;53.250;10.410;2022-11-15T12:45:32;13.60;99.90
13389;DHT22;6764;53.250;10.410;2022-11-15T12:53:29;13.60;99.90
13389;DHT22;6764;53.250;10.410;2022-11-15T12:58:57;13.50;99.90
13389;DHT22;6764;53.250;10.410;2022-11-15T13:07:00;13.50;99.90
13389;DHT22;6764;53.250;10.410;2022-11-15T13:12:08;13.60;99.90
13389;DHT22;6764;53.250;10.410;2022-11-15T13:19:46;13.60;99.90
13389;DHT22;6764;53.250;10.410;2022-11-15T13:22:13;13.60;99.90
13389;DHT22;6764;53.250;10.410;2022-11-15T13:24:57;13.60;99.90
13389;DHT22;6764;53.250;10.410;2022-11-15T13:27:24;13.60;99.90
13389;DHT22;6764;53.250;10.410;2022-11-15T13:29:50;13.50;99.90
13389;DHT22;6764;53.250;10.410;2022-11-15T13:32:16;13.50;99.90
13389;DHT22;6764;53.250;10.410;2022-11-15T13:34:49;13.70;99.90
13389;DHT22;6764;53.250;10.410;2022-11-15T13:39:47;13.50;99.90
13389;DHT22;6764;53.250;10.410;2022-11-15T13:42:20;13.40;99.90
13389;DHT22;6764;53.250;10.410;2022-11-15T13:45:01;13.40;99.90
13389;DHT22;6764;53.250;10.410;2022-11-15T13:47:28;13.50;99.90
13389;DHT22;6764;53.250;10.410;2022-11-15T13:49:57;13.40;99.90
13389;DHT22;6764;53.250;10.410;2022-11-15T13:52:27;13.40;99.90
13389;DHT22;6764;53.250;10.410;2022-11-15T13:54:56;13.40;99.90
13389;DHT22;6764;53.250;10.410;2022-11-15T13:57:43;13.30;99.90
13389;DHT22;6764;53.250;10.410;2022-11-15T14:03:22;13.30;99.90
13389;DHT22;6764;53.250;10.410;2022-11-15T14:06:14;13.30;99.90
13389;DHT22;6764;53.250;10.410;2022-11-15T14:11:34;13.30;99.90
13389;DHT22;6764;53.250;10.410;2022-11-15T14:19:05;13.20;99.90
13389;DHT22;6764;53.250;10.410;2022-11-15T14:21:31;13.10;99.90
13389;DHT22;6764;53.250;10.410;2022-11-15T14:24:16;13.10;99.90
13389;DHT22;6764;53.250;10.410;2022-11-15T14:26:43;13.00;99.90
13389;DHT22;6764;53.250;10.410;2022-11-15T14:29:25;13.00;99.90
13389;DHT22;6764;53.250;10.410;2022-11-15T14:31:52;13.00;99.90
13389;DHT22;6764;53.250;10.410;2022-11-15T14:34:17;12.90;99.90
13389;DHT22;6764;53.250;10.410;2022-11-15T14:36:43;12.80;99.90
13389;DHT22;6764;53.250;10.410;2022-11-15T14:39:09;12.90;99.90
13389;DHT22;6764;53.250;10.410;2022-11-15T14:41:36;12.90;99.90
13389;DHT22;6764;53.250;10.410;2022-11-15T14:44:05;13.00;99.90
13389;DHT22;6764;53.250;10.410;2022-11-15T14:46:32;12.90;99.90
13389;DHT22;6764;53.250;10.410;2022-11-15T14:48:57;12.80;99.90
13389;DHT22;6764;53.250;10.410;2022-11-15T14:51:23;12.80;99.90
13389;DHT22;6764;53.250;10.410;2022-11-15T14:53:49;12.80;99.90
13389;DHT22;6764;53.250;10.410;2022-11-15T14:56:15;12.80;99.90
13389;DHT22;6764;53.250;10.410;2022-11-15T14:58:44;12.70;99.90
13389;DHT22;6764;53.250;10.410;2022-11-15T15:01:17;12.60;99.90
13389;DHT22;6764;53.250;10.410;2022-11-15T15:03:43;12.60;99.90
13389;DHT22;6764;53.250;10.410;2022-11-15T15:06:09;12.60;99.90
13389;DHT22;6764;53.250;10.410;2022-11-15T15:08:38;12.50;99.90
13389;DHT22;6764;53.250;10.410;2022-11-15T15:11:14;12.50;99.90
13389;DHT22;6764;53.250;10.410;2022-11-15T15:13:40;12.50;99.90
13389;DHT22;6764;53.250;10.410;2022-11-15T15:16:06;12.40;99.90
13389;DHT22;6764;53.250;10.410;2022-11-15T15:18:31;12.30;99.90
13389;DHT22;6764;53.250;10.410;2022-11-15T15:20:58;12.30;99.90
13389;DHT22;6764;53.250;10.410;2022-11-15T15:23:27;12.20;99.90
13389;DHT22;6764;53.250;10.410;2022-11-15T15:25:56;12.30;99.90
13389;DHT22;6764;53.250;10.410;2022-11-15T15:28:22;12.20;99.90
13389;DHT22;6764;53.250;10.410;2022-11-15T15:30:47;12.20;99.90
13389;DHT22;6764;53.250;10.410;2022-11-15T15:33:14;12.10;99.90
13389;DHT22;6764;53.250;10.410;2022-11-15T15:35:40;12.10;99.90
13389;DHT22;6764;53.250;10.410;2022-11-15T15:38:06;12.10;99.90
13389;DHT22;6764;53.250;10.410;2022-11-15T15:40:34;12.00;99.90
13389;DHT22;6764;53.250;10.410;2022-11-15T15:43:00;12.00;99.90
13389;DHT22;6764;53.250;10.410;2022-11-15T15:45:26;12.00;99.90
13389;DHT22;6764;53.250;10.410;2022-11-15T15:47:53;12.00;99.90
13389;DHT22;6764;53.250;10.410;2022-11-15T15:50:29;12.00;99.90
13389;DHT22;6764;53.250;10.410;2022-11-15T15:52:57;12.00;99.90
13389;DHT22;6764;53.250;10.410;2022-11-15T15:55:23;12.00;99.90
13389;DHT22;6764;53.250;10.410;2022-11-15T15:57:49;12.00;99.90
13389;DHT22;6764;53.250;10.410;2022-11-15T16:00:16;12.00;99.90
13389;DHT22;6764;53.250;10.410;2022-11-15T16:02:42;12.00;99.90
13389;DHT22;6764;53.250;10.410;2022-11-15T16:05:09;11.90;99.90
13389;DHT22;6764;53.250;10.410;2022-11-15T16:07:35;11.90;99.90
13389;DHT22;6764;53.250;10.410;2022-11-15T16:10:04;11.80;99.90
13389;DHT22;6764;53.250;10.410;2022-11-15T16:12:39;11.80;99.90
13389;DHT22;6764;53.250;10.410;2022-11-15T16:15:05;11.80;99.90
13389;DHT22;6764;53.250;10.410;2022-11-15T16:17:33;11.80;99.90
13389;DHT22;6764;53.250;10.410;2022-11-15T16:20:00;11.70;99.90
13389;DHT22;6764;53.250;10.410;2022-11-15T16:22:26;11.70;99.90
13389;DHT22;6764;53.250;10.410;2022-11-15T16:24:52;11.70;99.90
13389;DHT22;6764;53.250;10.410;2022-11-15T16:27:19;11.70;99.90
13389;DHT22;6764;53.250;10.410;2022-11-15T16:29:46;11.80;99.90
13389;DHT22;6764;53.250;10.410;2022-11-15T16:32:12;11.70;99.90
13389;DHT22;6764;53.250;10.410;2022-11-15T16:34:38;11.70;99.90
13389;DHT22;6764;53.250;10.410;2022-11-15T16:37:04;11.80;99.90
13389;DHT22;6764;53.250;10.410;2022-11-15T16:39:30;11.70;99.90
13389;DHT22;6764;53.250;10.410;2022-11-15T16:41:57;11.70;99.90
13389;DHT22;6764;53.250;10.410;2022-11-15T16:44:23;11.80;99.90
13389;DHT22;6764;53.250;10.410;2022-11-15T16:46:50;11.80;99.90
13389;DHT22;6764;53.250;10.410;2022-11-15T16:49:19;11.80;99.90
13389;DHT22;6764;53.250;10.410;2022-11-15T16:51:49;11.80;99.90
13389;DHT22;6764;53.250;10.410;2022-11-15T16:54:15;11.70;99.90
13389;DHT22;6764;53.250;10.410;2022-11-15T16:56:40;11.70;99.90
13389;DHT22;6764;53.250;10.410;2022-11-15T16:59:08;11.80;99.90
13389;DHT22;6764;53.250;10.410;2022-11-15T17:01:36;11.70;99.90
13389;DHT22;6764;53.250;10.410;2022-11-15T17:04:11;11.80;99.90
13389;DHT22;6764;53.250;10.410;2022-11-15T17:06:38;11.80;99.90
13389;DHT22;6764;53.250;10.410;2022-11-15T17:09:06;11.80;99.90
13389;DHT22;6764;53.250;10.410;2022-11-15T17:11:32;11.80;99.90
13389;DHT22;6764;53.250;10.410;2022-11-15T17:13:58;11.80;99.90
13389;DHT22;6764;53.250;10.410;2022-11-15T17:16:25;11.90;99.90
13389;DHT22;6764;53.250;10.410;2022-11-15T17:18:51;11.90;99.90
13389;DHT22;6764;53.250;10.410;2022-11-15T17:21:19;11.90;99.90
13389;DHT22;6764;53.250;10.410;2022-11-15T17:23:45;11.80;99.90
13389;DHT22;6764;53.250;10.410;2022-11-15T17:26:12;11.80;99.90
13389;DHT22;6764;53.250;10.410;2022-11-15T17:28:39;11.80;99.90
13389;DHT22;6764;53.250;10.410;2022-11-15T17:31:09;11.90;99.90
13389;DHT22;6764;53.250;10.410;2022-11-15T17:33:35;12.00;99.90
13389;DHT22;6764;53.250;10.410;2022-11-15T17:36:03;11.90;99.90
13389;DHT22;6764;53.250;10.410;2022-11-15T17:38:29;11.90;99.90
13389;DHT22;6764;53.250;10.410;2022-11-15T17:41:15;12.10;99.90
13389;DHT22;6764;53.250;10.410;2022-11-15T17:43:41;12.00;99.90
13389;DHT22;6764;53.250;10.410;2022-11-15T17:46:10;12.00;99.90
13389;DHT22;6764;53.250;10.410;2022-11-15T17:48:37;12.00;99.90
13389;DHT22;6764;53.250;10.410;2022-11-15T17:51:06;12.00;99.90